<?xml version="1.0" encoding="UTF-8" standalone="no" ?>
<gpx xmlns="http://www.topografix.com/GPX/1/1" xmlns:xsi="http://www.w3.org/2001/XMLSchema-instance" xsi:schemaLocation="http://www.topografix.com/GPX/1/1 http://www.topografix.com/GPX/1/1/gpx.xsd" version="1.1" creator="VisuGPX - https://www.visugpx.com">
  <metadata>
    <name>Super_besse_1</name>
  </metadata>
  <trk>
    <name><![CDATA[Super_besse_1]]></name>
    <trkseg>
      <trkpt lat="45.51281" lon="2.85368">
        <ele>1315.373131</ele>
        <time>2021-08-27T17:10:07.267Z</time>
      </trkpt>
      <trkpt lat="45.51282" lon="2.85364">
        <ele>1315.373131</ele>
        <time>2021-08-27T17:10:08.304Z</time>
      </trkpt>
      <trkpt lat="45.51301" lon="2.85348">
        <ele>1315.373131</ele>
        <time>2021-08-27T17:10:20.265Z</time>
      </trkpt>
      <trkpt lat="45.51308" lon="2.85322">
        <ele>1315.373131</ele>
        <time>2021-08-27T17:10:29.263Z</time>
      </trkpt>
      <trkpt lat="45.51306" lon="2.85286">
        <ele>1315.373131</ele>
        <time>2021-08-27T17:10:43.099Z</time>
      </trkpt>
      <trkpt lat="45.51315" lon="2.85235">
        <ele>1315.750297</ele>
        <time>2021-08-27T17:11:03.367Z</time>
      </trkpt>
      <trkpt lat="45.51324" lon="2.85197">
        <ele>1316.375199</ele>
        <time>2021-08-27T17:11:19.410Z</time>
      </trkpt>
      <trkpt lat="45.51312" lon="2.85171">
        <ele>1316.864722</ele>
        <time>2021-08-27T17:11:31.286Z</time>
      </trkpt>
      <trkpt lat="45.51305" lon="2.85159">
        <ele>1317.110097</ele>
        <time>2021-08-27T17:11:37.774Z</time>
      </trkpt>
      <trkpt lat="45.51298" lon="2.85146">
        <ele>1317.364471</ele>
        <time>2021-08-27T17:11:43.877Z</time>
      </trkpt>
      <trkpt lat="45.51294" lon="2.85139">
        <ele>1317.500883</ele>
        <time>2021-08-27T17:11:47.038Z</time>
      </trkpt>
      <trkpt lat="45.51285" lon="2.85124">
        <ele>1317.813286</ele>
        <time>2021-08-27T17:11:54.282Z</time>
      </trkpt>
      <trkpt lat="45.51279" lon="2.8512">
        <ele>1317.95634</ele>
        <time>2021-08-27T17:11:57.788Z</time>
      </trkpt>
      <trkpt lat="45.51268" lon="2.85111">
        <ele>1318.229691</ele>
        <time>2021-08-27T17:12:04.071Z</time>
      </trkpt>
      <trkpt lat="45.51234" lon="2.85084">
        <ele>1319.104508</ele>
        <time>2021-08-27T17:12:23.282Z</time>
      </trkpt>
      <trkpt lat="45.51184" lon="2.85096">
        <ele>1319.546118</ele>
        <time>2021-08-27T17:12:44.793Z</time>
      </trkpt>
      <trkpt lat="45.51145" lon="2.85127">
        <ele>1319.746081</ele>
        <time>2021-08-27T17:13:03.026Z</time>
      </trkpt>
      <trkpt lat="45.51126" lon="2.85129">
        <ele>1319.831766</ele>
        <time>2021-08-27T17:13:10.398Z</time>
      </trkpt>
      <trkpt lat="45.51107" lon="2.85116">
        <ele>1319.925008</ele>
        <time>2021-08-27T17:13:17.533Z</time>
      </trkpt>
      <trkpt lat="45.51092" lon="2.85078">
        <ele>1320.063219</ele>
        <time>2021-08-27T17:13:29.885Z</time>
      </trkpt>
      <trkpt lat="45.5108" lon="2.85067">
        <ele>1320.127425</ele>
        <time>2021-08-27T17:13:35.012Z</time>
      </trkpt>
      <trkpt lat="45.51041" lon="2.85068">
        <ele>1321.344857</ele>
        <time>2021-08-27T17:13:51.608Z</time>
      </trkpt>
      <trkpt lat="45.50992" lon="2.85084">
        <ele>1323.560937</ele>
        <time>2021-08-27T17:14:16.031Z</time>
      </trkpt>
      <trkpt lat="45.50976" lon="2.85086">
        <ele>1324.279133</ele>
        <time>2021-08-27T17:14:23.004Z</time>
      </trkpt>
      <trkpt lat="45.5095" lon="2.85076">
        <ele>1325.42182</ele>
        <time>2021-08-27T17:14:40.551Z</time>
      </trkpt>
      <trkpt lat="45.50931" lon="2.85067">
        <ele>1326.320864</ele>
        <time>2021-08-27T17:14:54.243Z</time>
      </trkpt>
      <trkpt lat="45.5088" lon="2.85">
        <ele>1332.402732</ele>
        <time>2021-08-27T17:16:01.795Z</time>
      </trkpt>
      <trkpt lat="45.50849" lon="2.84974">
        <ele>1337.752175</ele>
        <time>2021-08-27T17:16:44.163Z</time>
      </trkpt>
      <trkpt lat="45.50831" lon="2.84959">
        <ele>1340.884094</ele>
        <time>2021-08-27T17:17:13.122Z</time>
      </trkpt>
      <trkpt lat="45.50817" lon="2.8493">
        <ele>1344.476563</ele>
        <time>2021-08-27T17:17:43.947Z</time>
      </trkpt>
      <trkpt lat="45.50801" lon="2.84873">
        <ele>1350.866287</ele>
        <time>2021-08-27T17:18:45.200Z</time>
      </trkpt>
      <trkpt lat="45.50786" lon="2.84832">
        <ele>1355.980202</ele>
        <time>2021-08-27T17:19:33.589Z</time>
      </trkpt>
      <trkpt lat="45.50739" lon="2.84773">
        <ele>1368.19476</ele>
        <time>2021-08-27T17:21:14.292Z</time>
      </trkpt>
      <trkpt lat="45.50716" lon="2.84731">
        <ele>1375.370962</ele>
        <time>2021-08-27T17:22:13.608Z</time>
      </trkpt>
      <trkpt lat="45.50708" lon="2.84654">
        <ele>1386.039793</ele>
        <time>2021-08-27T17:23:35.727Z</time>
      </trkpt>
      <trkpt lat="45.50726" lon="2.84638">
        <ele>1390.128324</ele>
        <time>2021-08-27T17:24:06.977Z</time>
      </trkpt>
      <trkpt lat="45.50792" lon="2.84611">
        <ele>1404.68287</ele>
        <time>2021-08-27T17:25:59.485Z</time>
      </trkpt>
      <trkpt lat="45.50854" lon="2.84571">
        <ele>1419.009213</ele>
        <time>2021-08-27T17:27:54.862Z</time>
      </trkpt>
      <trkpt lat="45.50895" lon="2.84528">
        <ele>1429.562938</ele>
        <time>2021-08-27T17:29:18.185Z</time>
      </trkpt>
      <trkpt lat="45.50925" lon="2.845">
        <ele>1437.192767</ele>
        <time>2021-08-27T17:30:21.700Z</time>
      </trkpt>
      <trkpt lat="45.50957" lon="2.84459">
        <ele>1446.113072</ele>
        <time>2021-08-27T17:31:35.614Z</time>
      </trkpt>
      <trkpt lat="45.50963" lon="2.8443">
        <ele>1450.645052</ele>
        <time>2021-08-27T17:32:10.779Z</time>
      </trkpt>
      <trkpt lat="45.50957" lon="2.84366">
        <ele>1460.130853</ele>
        <time>2021-08-27T17:33:26.594Z</time>
      </trkpt>
      <trkpt lat="45.50953" lon="2.84302">
        <ele>1468.805212</ele>
        <time>2021-08-27T17:34:33.527Z</time>
      </trkpt>
      <trkpt lat="45.50923" lon="2.84274">
        <ele>1474.982679</ele>
        <time>2021-08-27T17:35:23.381Z</time>
      </trkpt>
      <trkpt lat="45.50897" lon="2.84244">
        <ele>1480.890414</ele>
        <time>2021-08-27T17:36:12.826Z</time>
      </trkpt>
      <trkpt lat="45.50892" lon="2.84234">
        <ele>1482.296286</ele>
        <time>2021-08-27T17:36:27.211Z</time>
      </trkpt>
      <trkpt lat="45.50885" lon="2.84221">
        <ele>1484.306082</ele>
        <time>2021-08-27T17:36:42.953Z</time>
      </trkpt>
      <trkpt lat="45.50883" lon="2.84163">
        <ele>1491.301551</ele>
        <time>2021-08-27T17:37:38.618Z</time>
      </trkpt>
      <trkpt lat="45.50895" lon="2.84111">
        <ele>1497.636242</ele>
        <time>2021-08-27T17:38:26.260Z</time>
      </trkpt>
      <trkpt lat="45.509" lon="2.841">
        <ele>1498.955501</ele>
        <time>2021-08-27T17:38:37.466Z</time>
      </trkpt>
      <trkpt lat="45.50905" lon="2.84089">
        <ele>1500.299681</ele>
        <time>2021-08-27T17:38:52.917Z</time>
      </trkpt>
      <trkpt lat="45.5094" lon="2.84042">
        <ele>1507.247993</ele>
        <time>2021-08-27T17:39:52.275Z</time>
      </trkpt>
      <trkpt lat="45.50958" lon="2.83984">
        <ele>1513.727204</ele>
        <time>2021-08-27T17:40:44.325Z</time>
      </trkpt>
      <trkpt lat="45.50977" lon="2.83947">
        <ele>1518.426215</ele>
        <time>2021-08-27T17:41:23.308Z</time>
      </trkpt>
      <trkpt lat="45.5102" lon="2.8392">
        <ele>1525.450844</ele>
        <time>2021-08-27T17:42:23.381Z</time>
      </trkpt>
      <trkpt lat="45.51061" lon="2.8388">
        <ele>1533.119669</ele>
        <time>2021-08-27T17:43:30.415Z</time>
      </trkpt>
      <trkpt lat="45.51099" lon="2.8382">
        <ele>1542.01583</ele>
        <time>2021-08-27T17:44:45.149Z</time>
      </trkpt>
      <trkpt lat="45.51114" lon="2.83784">
        <ele>1546.615027</ele>
        <time>2021-08-27T17:45:26.298Z</time>
      </trkpt>
      <trkpt lat="45.51131" lon="2.83718">
        <ele>1554.04887</ele>
        <time>2021-08-27T17:46:28.807Z</time>
      </trkpt>
      <trkpt lat="45.51132" lon="2.83712">
        <ele>1554.68214</ele>
        <time>2021-08-27T17:46:36.819Z</time>
      </trkpt>
      <trkpt lat="45.51191" lon="2.83512">
        <ele>1576.460402</ele>
        <time>2021-08-27T17:49:46.083Z</time>
      </trkpt>
      <trkpt lat="45.51208" lon="2.83498">
        <ele>1579.135456</ele>
        <time>2021-08-27T17:50:03.855Z</time>
      </trkpt>
      <trkpt lat="45.51227" lon="2.83493">
        <ele>1581.612626</ele>
        <time>2021-08-27T17:50:23.946Z</time>
      </trkpt>
      <trkpt lat="45.51283" lon="2.83503">
        <ele>1589.081327</ele>
        <time>2021-08-27T17:51:25.055Z</time>
      </trkpt>
      <trkpt lat="45.51298" lon="2.83498">
        <ele>1591.065935</ele>
        <time>2021-08-27T17:51:44.623Z</time>
      </trkpt>
      <trkpt lat="45.51345" lon="2.83439">
        <ele>1599.252316</ele>
        <time>2021-08-27T17:52:58.869Z</time>
      </trkpt>
      <trkpt lat="45.51348" lon="2.83436">
        <ele>1599.859259</ele>
        <time>2021-08-27T17:53:06.906Z</time>
      </trkpt>
      <trkpt lat="45.51383" lon="2.83405">
        <ele>1606.426768</ele>
        <time>2021-08-27T17:53:58.992Z</time>
      </trkpt>
      <trkpt lat="45.5151" lon="2.83297">
        <ele>1630.467859</ele>
        <time>2021-08-27T17:57:27.707Z</time>
      </trkpt>
      <trkpt lat="45.51541" lon="2.83265">
        <ele>1635.713755</ele>
        <time>2021-08-27T17:58:19.773Z</time>
      </trkpt>
      <trkpt lat="45.51606" lon="2.83142">
        <ele>1650.568407</ele>
        <time>2021-08-27T18:00:38.012Z</time>
      </trkpt>
      <trkpt lat="45.51626" lon="2.83092">
        <ele>1654.45632</ele>
        <time>2021-08-27T18:01:13.945Z</time>
      </trkpt>
      <trkpt lat="45.51668" lon="2.83051">
        <ele>1655.126782</ele>
        <time>2021-08-27T18:01:50.109Z</time>
      </trkpt>
      <trkpt lat="45.51673" lon="2.83066">
        <ele>1655.279207</ele>
        <time>2021-08-27T18:01:55.521Z</time>
      </trkpt>
      <trkpt lat="45.51682" lon="2.83102">
        <ele>1655.631395</ele>
        <time>2021-08-27T18:02:08.205Z</time>
      </trkpt>
      <trkpt lat="45.51693" lon="2.83127">
        <ele>1655.906071</ele>
        <time>2021-08-27T18:02:15.741Z</time>
      </trkpt>
      <trkpt lat="45.517" lon="2.83148">
        <ele>1656.115032</ele>
        <time>2021-08-27T18:02:21.041Z</time>
      </trkpt>
      <trkpt lat="45.5171" lon="2.8325">
        <ele>1654.08295</ele>
        <time>2021-08-27T18:02:41.682Z</time>
      </trkpt>
      <trkpt lat="45.51722" lon="2.83308">
        <ele>1650.740054</ele>
        <time>2021-08-27T18:02:52.543Z</time>
      </trkpt>
      <trkpt lat="45.51729" lon="2.83343">
        <ele>1648.682755</ele>
        <time>2021-08-27T18:02:59.282Z</time>
      </trkpt>
      <trkpt lat="45.51742" lon="2.83377">
        <ele>1646.529289</ele>
        <time>2021-08-27T18:03:06.675Z</time>
      </trkpt>
      <trkpt lat="45.51752" lon="2.83407">
        <ele>1644.667514</ele>
        <time>2021-08-27T18:03:12.900Z</time>
      </trkpt>
      <trkpt lat="45.51756" lon="2.83423">
        <ele>1643.763891</ele>
        <time>2021-08-27T18:03:16.044Z</time>
      </trkpt>
      <trkpt lat="45.51761" lon="2.83441">
        <ele>1642.673344</ele>
        <time>2021-08-27T18:03:19.563Z</time>
      </trkpt>
      <trkpt lat="45.51793" lon="2.83525">
        <ele>1637.440536</ele>
        <time>2021-08-27T18:03:37.265Z</time>
      </trkpt>
      <trkpt lat="45.51802" lon="2.83572">
        <ele>1634.755806</ele>
        <time>2021-08-27T18:03:46.475Z</time>
      </trkpt>
      <trkpt lat="45.51811" lon="2.8361">
        <ele>1632.561708</ele>
        <time>2021-08-27T18:03:54.113Z</time>
      </trkpt>
      <trkpt lat="45.51821" lon="2.83632">
        <ele>1631.081658</ele>
        <time>2021-08-27T18:03:59.037Z</time>
      </trkpt>
      <trkpt lat="45.51842" lon="2.83643">
        <ele>1629.367038</ele>
        <time>2021-08-27T18:04:05.207Z</time>
      </trkpt>
      <trkpt lat="45.51854" lon="2.83648">
        <ele>1628.37066</ele>
        <time>2021-08-27T18:04:08.681Z</time>
      </trkpt>
      <trkpt lat="45.51864" lon="2.83653">
        <ele>1627.584213</ele>
        <time>2021-08-27T18:04:11.767Z</time>
      </trkpt>
      <trkpt lat="45.51886" lon="2.83688">
        <ele>1625.28063</ele>
        <time>2021-08-27T18:04:20.655Z</time>
      </trkpt>
      <trkpt lat="45.51939" lon="2.83733">
        <ele>1620.937194</ele>
        <time>2021-08-27T18:04:37.528Z</time>
      </trkpt>
      <trkpt lat="45.51948" lon="2.83744">
        <ele>1620.114175</ele>
        <time>2021-08-27T18:04:40.826Z</time>
      </trkpt>
      <trkpt lat="45.51957" lon="2.83755">
        <ele>1619.304993</ele>
        <time>2021-08-27T18:04:43.893Z</time>
      </trkpt>
      <trkpt lat="45.51972" lon="2.83798">
        <ele>1616.924861</ele>
        <time>2021-08-27T18:04:53.388Z</time>
      </trkpt>
      <trkpt lat="45.51973" lon="2.838">
        <ele>1616.810512</ele>
        <time>2021-08-27T18:04:53.768Z</time>
      </trkpt>
      <trkpt lat="45.51983" lon="2.83861">
        <ele>1613.721027</ele>
        <time>2021-08-27T18:05:06.177Z</time>
      </trkpt>
      <trkpt lat="45.51999" lon="2.83906">
        <ele>1611.288899</ele>
        <time>2021-08-27T18:05:15.864Z</time>
      </trkpt>
      <trkpt lat="45.52021" lon="2.83942">
        <ele>1608.935197</ele>
        <time>2021-08-27T18:05:24.970Z</time>
      </trkpt>
      <trkpt lat="45.52041" lon="2.84">
        <ele>1605.795055</ele>
        <time>2021-08-27T18:05:37.219Z</time>
      </trkpt>
      <trkpt lat="45.52049" lon="2.84019">
        <ele>1604.675664</ele>
        <time>2021-08-27T18:05:41.823Z</time>
      </trkpt>
      <trkpt lat="45.52073" lon="2.84067">
        <ele>1601.604607</ele>
        <time>2021-08-27T18:05:53.192Z</time>
      </trkpt>
      <trkpt lat="45.52073" lon="2.84101">
        <ele>1599.68201</ele>
        <time>2021-08-27T18:05:59.689Z</time>
      </trkpt>
      <trkpt lat="45.52075" lon="2.84115">
        <ele>1598.845766</ele>
        <time>2021-08-27T18:06:02.537Z</time>
      </trkpt>
      <trkpt lat="45.52074" lon="2.84135">
        <ele>1597.706056</ele>
        <time>2021-08-27T18:06:06.238Z</time>
      </trkpt>
      <trkpt lat="45.5207" lon="2.84194">
        <ele>1594.384903</ele>
        <time>2021-08-27T18:06:17.262Z</time>
      </trkpt>
      <trkpt lat="45.52079" lon="2.84265">
        <ele>1590.254144</ele>
        <time>2021-08-27T18:06:30.959Z</time>
      </trkpt>
      <trkpt lat="45.52093" lon="2.84319">
        <ele>1586.427073</ele>
        <time>2021-08-27T18:06:41.410Z</time>
      </trkpt>
      <trkpt lat="45.52136" lon="2.84436">
        <ele>1576.306024</ele>
        <time>2021-08-27T18:07:04.994Z</time>
      </trkpt>
      <trkpt lat="45.52153" lon="2.84513">
        <ele>1570.065217</ele>
        <time>2021-08-27T18:07:19.294Z</time>
      </trkpt>
      <trkpt lat="45.52137" lon="2.84596">
        <ele>1562.941654</ele>
        <time>2021-08-27T18:07:34.346Z</time>
      </trkpt>
      <trkpt lat="45.52142" lon="2.8461">
        <ele>1561.56139</ele>
        <time>2021-08-27T18:07:37.223Z</time>
      </trkpt>
      <trkpt lat="45.52139" lon="2.84627">
        <ele>1560.073538</ele>
        <time>2021-08-27T18:07:40.314Z</time>
      </trkpt>
      <trkpt lat="45.52132" lon="2.84636">
        <ele>1558.936217</ele>
        <time>2021-08-27T18:07:42.697Z</time>
      </trkpt>
      <trkpt lat="45.52133" lon="2.84656">
        <ele>1557.309104</ele>
        <time>2021-08-27T18:07:46.088Z</time>
      </trkpt>
      <trkpt lat="45.5209" lon="2.84754">
        <ele>1547.555467</ele>
        <time>2021-08-27T18:08:06.503Z</time>
      </trkpt>
      <trkpt lat="45.52093" lon="2.84777">
        <ele>1545.89496</ele>
        <time>2021-08-27T18:08:10.644Z</time>
      </trkpt>
      <trkpt lat="45.52086" lon="2.84787">
        <ele>1544.873834</ele>
        <time>2021-08-27T18:08:13.293Z</time>
      </trkpt>
      <trkpt lat="45.52094" lon="2.84804">
        <ele>1543.481141</ele>
        <time>2021-08-27T18:08:16.917Z</time>
      </trkpt>
      <trkpt lat="45.52087" lon="2.84813">
        <ele>1542.542949</ele>
        <time>2021-08-27T18:08:19.367Z</time>
      </trkpt>
      <trkpt lat="45.52088" lon="2.84827">
        <ele>1541.595037</ele>
        <time>2021-08-27T18:08:21.856Z</time>
      </trkpt>
      <trkpt lat="45.52084" lon="2.84846">
        <ele>1540.245778</ele>
        <time>2021-08-27T18:08:25.413Z</time>
      </trkpt>
      <trkpt lat="45.52087" lon="2.84856">
        <ele>1539.467051</ele>
        <time>2021-08-27T18:08:27.470Z</time>
      </trkpt>
      <trkpt lat="45.52081" lon="2.84903">
        <ele>1536.186446</ele>
        <time>2021-08-27T18:08:36.203Z</time>
      </trkpt>
      <trkpt lat="45.52102" lon="2.84949">
        <ele>1532.433885</ele>
        <time>2021-08-27T18:08:46.282Z</time>
      </trkpt>
      <trkpt lat="45.52116" lon="2.85005">
        <ele>1528.593107</ele>
        <time>2021-08-27T18:08:57.338Z</time>
      </trkpt>
      <trkpt lat="45.52107" lon="2.85059">
        <ele>1525.496544</ele>
        <time>2021-08-27T18:09:07.725Z</time>
      </trkpt>
      <trkpt lat="45.52052" lon="2.85261">
        <ele>1513.466097</ele>
        <time>2021-08-27T18:09:48.633Z</time>
      </trkpt>
      <trkpt lat="45.52039" lon="2.85354">
        <ele>1508.471921</ele>
        <time>2021-08-27T18:10:06.486Z</time>
      </trkpt>
      <trkpt lat="45.52036" lon="2.85416">
        <ele>1505.152467</ele>
        <time>2021-08-27T18:10:18.426Z</time>
      </trkpt>
      <trkpt lat="45.52008" lon="2.8548">
        <ele>1501.215086</ele>
        <time>2021-08-27T18:10:32.800Z</time>
      </trkpt>
      <trkpt lat="45.5197" lon="2.85642">
        <ele>1492.704261</ele>
        <time>2021-08-27T18:11:05.479Z</time>
      </trkpt>
      <trkpt lat="45.51948" lon="2.85686">
        <ele>1489.966829</ele>
        <time>2021-08-27T18:11:15.908Z</time>
      </trkpt>
      <trkpt lat="45.51944" lon="2.85691">
        <ele>1489.623211</ele>
        <time>2021-08-27T18:11:17.189Z</time>
      </trkpt>
      <trkpt lat="45.5192" lon="2.85704">
        <ele>1487.666708</ele>
        <time>2021-08-27T18:11:24.182Z</time>
      </trkpt>
      <trkpt lat="45.5188" lon="2.85725">
        <ele>1484.26065</ele>
        <time>2021-08-27T18:11:35.745Z</time>
      </trkpt>
      <trkpt lat="45.51871" lon="2.85726">
        <ele>1483.480191</ele>
        <time>2021-08-27T18:11:38.368Z</time>
      </trkpt>
      <trkpt lat="45.51863" lon="2.8572">
        <ele>1482.763813</ele>
        <time>2021-08-27T18:11:40.808Z</time>
      </trkpt>
      <trkpt lat="45.51856" lon="2.85717">
        <ele>1482.158701</ele>
        <time>2021-08-27T18:11:42.781Z</time>
      </trkpt>
      <trkpt lat="45.51832" lon="2.85734">
        <ele>1480.050237</ele>
        <time>2021-08-27T18:11:49.883Z</time>
      </trkpt>
      <trkpt lat="45.51787" lon="2.85766">
        <ele>1476.010834</ele>
        <time>2021-08-27T18:12:03.168Z</time>
      </trkpt>
      <trkpt lat="45.51745" lon="2.85806">
        <ele>1471.514518</ele>
        <time>2021-08-27T18:12:16.524Z</time>
      </trkpt>
      <trkpt lat="45.51707" lon="2.85829">
        <ele>1467.64018</ele>
        <time>2021-08-27T18:12:27.143Z</time>
      </trkpt>
      <trkpt lat="45.51692" lon="2.85847">
        <ele>1465.767749</ele>
        <time>2021-08-27T18:12:32.383Z</time>
      </trkpt>
      <trkpt lat="45.51664" lon="2.85928">
        <ele>1459.758796</ele>
        <time>2021-08-27T18:12:48.733Z</time>
      </trkpt>
      <trkpt lat="45.51635" lon="2.85995">
        <ele>1455.265953</ele>
        <time>2021-08-27T18:13:02.946Z</time>
      </trkpt>
      <trkpt lat="45.51606" lon="2.86027">
        <ele>1452.626478</ele>
        <time>2021-08-27T18:13:12.549Z</time>
      </trkpt>
      <trkpt lat="45.51585" lon="2.8604">
        <ele>1450.971569</ele>
        <time>2021-08-27T18:13:18.591Z</time>
      </trkpt>
      <trkpt lat="45.5157" lon="2.8605">
        <ele>1449.789545</ele>
        <time>2021-08-27T18:13:22.879Z</time>
      </trkpt>
      <trkpt lat="45.51483" lon="2.86102">
        <ele>1445.447363</ele>
        <time>2021-08-27T18:13:50.504Z</time>
      </trkpt>
      <trkpt lat="45.51469" lon="2.8611">
        <ele>1446.073893</ele>
        <time>2021-08-27T18:13:55.561Z</time>
      </trkpt>
      <trkpt lat="45.51436" lon="2.8613">
        <ele>1447.605267</ele>
        <time>2021-08-27T18:14:12.699Z</time>
      </trkpt>
      <trkpt lat="45.51425" lon="2.86137">
        <ele>1448.099677</ele>
        <time>2021-08-27T18:14:21.980Z</time>
      </trkpt>
      <trkpt lat="45.51408" lon="2.86147">
        <ele>1448.865365</ele>
        <time>2021-08-27T18:14:32.199Z</time>
      </trkpt>
      <trkpt lat="45.51416" lon="2.8616">
        <ele>1449.376912</ele>
        <time>2021-08-27T18:14:45.005Z</time>
      </trkpt>
      <trkpt lat="45.51421" lon="2.86174">
        <ele>1449.832326</ele>
        <time>2021-08-27T18:14:52.814Z</time>
      </trkpt>
      <trkpt lat="45.51418" lon="2.86198">
        <ele>1450.550923</ele>
        <time>2021-08-27T18:15:05.803Z</time>
      </trkpt>
      <trkpt lat="45.51378" lon="2.8631">
        <ele>1456.85316</ele>
        <time>2021-08-27T18:16:39.770Z</time>
      </trkpt>
      <trkpt lat="45.5128" lon="2.86459">
        <ele>1468.478483</ele>
        <time>2021-08-27T18:18:58.349Z</time>
      </trkpt>
      <trkpt lat="45.51275" lon="2.86466">
        <ele>1468.265034</ele>
        <time>2021-08-27T18:19:07.362Z</time>
      </trkpt>
      <trkpt lat="45.51275" lon="2.86466">
        <ele>1468.265034</ele>
        <time>2021-08-27T18:19:07.554Z</time>
      </trkpt>
      <trkpt lat="45.51275" lon="2.86466">
        <ele>1468.265034</ele>
        <time>2021-08-27T18:19:07.580Z</time>
      </trkpt>
      <trkpt lat="45.51284" lon="2.86483">
        <ele>1467.785088</ele>
        <time>2021-08-27T18:19:12.433Z</time>
      </trkpt>
      <trkpt lat="45.51295" lon="2.86512">
        <ele>1467.064197</ele>
        <time>2021-08-27T18:19:25.128Z</time>
      </trkpt>
      <trkpt lat="45.51308" lon="2.86522">
        <ele>1466.582343</ele>
        <time>2021-08-27T18:19:29.460Z</time>
      </trkpt>
      <trkpt lat="45.51332" lon="2.86563">
        <ele>1465.420883</ele>
        <time>2021-08-27T18:19:40.442Z</time>
      </trkpt>
      <trkpt lat="45.51349" lon="2.8658">
        <ele>1464.774873</ele>
        <time>2021-08-27T18:19:46.554Z</time>
      </trkpt>
      <trkpt lat="45.5134" lon="2.86616">
        <ele>1463.923729</ele>
        <time>2021-08-27T18:19:53.443Z</time>
      </trkpt>
      <trkpt lat="45.51304" lon="2.86679">
        <ele>1458.861186</ele>
        <time>2021-08-27T18:20:07.683Z</time>
      </trkpt>
      <trkpt lat="45.51258" lon="2.86733">
        <ele>1451.685321</ele>
        <time>2021-08-27T18:20:22.187Z</time>
      </trkpt>
      <trkpt lat="45.51234" lon="2.86754">
        <ele>1448.304008</ele>
        <time>2021-08-27T18:20:29.046Z</time>
      </trkpt>
      <trkpt lat="45.51202" lon="2.86778">
        <ele>1443.818896</ele>
        <time>2021-08-27T18:20:38.336Z</time>
      </trkpt>
      <trkpt lat="45.51163" lon="2.86794">
        <ele>1439.515177</ele>
        <time>2021-08-27T18:20:48.521Z</time>
      </trkpt>
      <trkpt lat="45.51122" lon="2.86788">
        <ele>1435.540254</ele>
        <time>2021-08-27T18:20:59.412Z</time>
      </trkpt>
      <trkpt lat="45.51109" lon="2.8679">
        <ele>1434.289487</ele>
        <time>2021-08-27T18:21:02.717Z</time>
      </trkpt>
      <trkpt lat="45.51095" lon="2.86773">
        <ele>1432.580296</ele>
        <time>2021-08-27T18:21:07.768Z</time>
      </trkpt>
      <trkpt lat="45.51086" lon="2.86754">
        <ele>1431.056288</ele>
        <time>2021-08-27T18:21:11.891Z</time>
      </trkpt>
      <trkpt lat="45.51084" lon="2.86729">
        <ele>1429.346974</ele>
        <time>2021-08-27T18:21:16.713Z</time>
      </trkpt>
      <trkpt lat="45.51071" lon="2.86722">
        <ele>1428.026919</ele>
        <time>2021-08-27T18:21:20.265Z</time>
      </trkpt>
      <trkpt lat="45.51066" lon="2.86683">
        <ele>1425.40537</ele>
        <time>2021-08-27T18:21:27.401Z</time>
      </trkpt>
      <trkpt lat="45.51059" lon="2.86665">
        <ele>1424.072638</ele>
        <time>2021-08-27T18:21:31.109Z</time>
      </trkpt>
      <trkpt lat="45.51059" lon="2.86665">
        <ele>1424.068152</ele>
        <time>2021-08-27T18:21:31.129Z</time>
      </trkpt>
      <trkpt lat="45.5099" lon="2.86651">
        <ele>1419.658911</ele>
        <time>2021-08-27T18:21:49.713Z</time>
      </trkpt>
      <trkpt lat="45.50907" lon="2.86625">
        <ele>1414.178534</ele>
        <time>2021-08-27T18:22:13.665Z</time>
      </trkpt>
      <trkpt lat="45.50934" lon="2.86594">
        <ele>1412.995345</ele>
        <time>2021-08-27T18:22:24.553Z</time>
      </trkpt>
      <trkpt lat="45.50966" lon="2.86558">
        <ele>1413.706154</ele>
        <time>2021-08-27T18:22:38.310Z</time>
      </trkpt>
      <trkpt lat="45.50991" lon="2.86516">
        <ele>1414.370645</ele>
        <time>2021-08-27T18:22:55.105Z</time>
      </trkpt>
      <trkpt lat="45.51019" lon="2.86448">
        <ele>1415.337447</ele>
        <time>2021-08-27T18:23:33.825Z</time>
      </trkpt>
      <trkpt lat="45.51103" lon="2.8635">
        <ele>1419.454307</ele>
        <time>2021-08-27T18:24:48.906Z</time>
      </trkpt>
      <trkpt lat="45.51297" lon="2.86213">
        <ele>1427.222737</ele>
        <time>2021-08-27T18:27:06.715Z</time>
      </trkpt>
      <trkpt lat="45.51408" lon="2.86147">
        <ele>1427.328398</ele>
        <time>2021-08-27T18:27:52.623Z</time>
      </trkpt>
      <trkpt lat="45.51425" lon="2.86137">
        <ele>1426.772706</ele>
        <time>2021-08-27T18:27:59.396Z</time>
      </trkpt>
      <trkpt lat="45.51436" lon="2.8613">
        <ele>1426.413892</ele>
        <time>2021-08-27T18:28:03.988Z</time>
      </trkpt>
      <trkpt lat="45.51432" lon="2.86129">
        <ele>1426.300451</ele>
        <time>2021-08-27T18:28:04.866Z</time>
      </trkpt>
      <trkpt lat="45.51425" lon="2.86114">
        <ele>1425.920093</ele>
        <time>2021-08-27T18:28:08.464Z</time>
      </trkpt>
      <trkpt lat="45.51425" lon="2.86086">
        <ele>1425.311344</ele>
        <time>2021-08-27T18:28:15.857Z</time>
      </trkpt>
      <trkpt lat="45.51423" lon="2.86081">
        <ele>1425.194291</ele>
        <time>2021-08-27T18:28:16.759Z</time>
      </trkpt>
      <trkpt lat="45.5142" lon="2.86072">
        <ele>1424.988263</ele>
        <time>2021-08-27T18:28:18.672Z</time>
      </trkpt>
      <trkpt lat="45.51384" lon="2.86064">
        <ele>1423.864913</ele>
        <time>2021-08-27T18:28:29.529Z</time>
      </trkpt>
      <trkpt lat="45.51364" lon="2.86074">
        <ele>1422.783587</ele>
        <time>2021-08-27T18:28:35.712Z</time>
      </trkpt>
      <trkpt lat="45.51333" lon="2.86119">
        <ele>1418.591381</ele>
        <time>2021-08-27T18:28:47.160Z</time>
      </trkpt>
      <trkpt lat="45.51321" lon="2.86119">
        <ele>1417.525385</ele>
        <time>2021-08-27T18:28:50.112Z</time>
      </trkpt>
      <trkpt lat="45.51335" lon="2.86097">
        <ele>1415.564671</ele>
        <time>2021-08-27T18:28:55.564Z</time>
      </trkpt>
      <trkpt lat="45.51349" lon="2.8607">
        <ele>1413.339622</ele>
        <time>2021-08-27T18:29:01.944Z</time>
      </trkpt>
      <trkpt lat="45.51368" lon="2.86049">
        <ele>1411.104122</ele>
        <time>2021-08-27T18:29:07.938Z</time>
      </trkpt>
      <trkpt lat="45.51377" lon="2.8603">
        <ele>1409.563075</ele>
        <time>2021-08-27T18:29:12.348Z</time>
      </trkpt>
      <trkpt lat="45.51373" lon="2.8602">
        <ele>1408.795015</ele>
        <time>2021-08-27T18:29:14.271Z</time>
      </trkpt>
      <trkpt lat="45.51337" lon="2.8597">
        <ele>1403.021728</ele>
        <time>2021-08-27T18:29:26.958Z</time>
      </trkpt>
      <trkpt lat="45.51331" lon="2.85969">
        <ele>1402.248838</ele>
        <time>2021-08-27T18:29:28.452Z</time>
      </trkpt>
      <trkpt lat="45.51315" lon="2.85988">
        <ele>1399.461234</ele>
        <time>2021-08-27T18:29:33.610Z</time>
      </trkpt>
      <trkpt lat="45.51307" lon="2.85986">
        <ele>1398.354558</ele>
        <time>2021-08-27T18:29:35.750Z</time>
      </trkpt>
      <trkpt lat="45.51297" lon="2.85924">
        <ele>1392.489673</ele>
        <time>2021-08-27T18:29:46.634Z</time>
      </trkpt>
      <trkpt lat="45.51296" lon="2.85884">
        <ele>1388.683513</ele>
        <time>2021-08-27T18:29:53.465Z</time>
      </trkpt>
      <trkpt lat="45.51285" lon="2.85891">
        <ele>1387.009381</ele>
        <time>2021-08-27T18:29:56.534Z</time>
      </trkpt>
      <trkpt lat="45.51274" lon="2.85918">
        <ele>1384.129794</ele>
        <time>2021-08-27T18:30:01.917Z</time>
      </trkpt>
      <trkpt lat="45.51264" lon="2.85907">
        <ele>1382.47943</ele>
        <time>2021-08-27T18:30:05.016Z</time>
      </trkpt>
      <trkpt lat="45.51257" lon="2.85919">
        <ele>1381.374111</ele>
        <time>2021-08-27T18:30:07.811Z</time>
      </trkpt>
      <trkpt lat="45.51254" lon="2.85905">
        <ele>1380.300982</ele>
        <time>2021-08-27T18:30:10.562Z</time>
      </trkpt>
      <trkpt lat="45.51228" lon="2.85902">
        <ele>1377.771268</ele>
        <time>2021-08-27T18:30:16.962Z</time>
      </trkpt>
      <trkpt lat="45.51219" lon="2.85882">
        <ele>1376.117601</ele>
        <time>2021-08-27T18:30:21.280Z</time>
      </trkpt>
      <trkpt lat="45.51217" lon="2.85865">
        <ele>1374.936031</ele>
        <time>2021-08-27T18:30:24.279Z</time>
      </trkpt>
      <trkpt lat="45.51214" lon="2.85836">
        <ele>1372.909782</ele>
        <time>2021-08-27T18:30:29.639Z</time>
      </trkpt>
      <trkpt lat="45.51236" lon="2.8579">
        <ele>1369.060089</ele>
        <time>2021-08-27T18:30:39.965Z</time>
      </trkpt>
      <trkpt lat="45.51259" lon="2.85744">
        <ele>1365.103173</ele>
        <time>2021-08-27T18:30:50.822Z</time>
      </trkpt>
      <trkpt lat="45.51287" lon="2.85712">
        <ele>1363.11148</ele>
        <time>2021-08-27T18:31:00.716Z</time>
      </trkpt>
      <trkpt lat="45.51301" lon="2.85679">
        <ele>1361.723109</ele>
        <time>2021-08-27T18:31:08.176Z</time>
      </trkpt>
      <trkpt lat="45.51336" lon="2.85666">
        <ele>1359.82042</ele>
        <time>2021-08-27T18:31:19.462Z</time>
      </trkpt>
      <trkpt lat="45.51344" lon="2.85639">
        <ele>1358.745259</ele>
        <time>2021-08-27T18:31:25.671Z</time>
      </trkpt>
      <trkpt lat="45.5134" lon="2.85593">
        <ele>1357.046442</ele>
        <time>2021-08-27T18:31:35.224Z</time>
      </trkpt>
      <trkpt lat="45.51345" lon="2.85559">
        <ele>1355.787984</ele>
        <time>2021-08-27T18:31:42.161Z</time>
      </trkpt>
      <trkpt lat="45.51366" lon="2.8549">
        <ele>1352.103548</ele>
        <time>2021-08-27T18:31:57.118Z</time>
      </trkpt>
      <trkpt lat="45.51394" lon="2.85431">
        <ele>1348.496823</ele>
        <time>2021-08-27T18:32:10.825Z</time>
      </trkpt>
      <trkpt lat="45.51423" lon="2.8535">
        <ele>1343.915425</ele>
        <time>2021-08-27T18:32:27.844Z</time>
      </trkpt>
      <trkpt lat="45.51443" lon="2.85292">
        <ele>1339.930004</ele>
        <time>2021-08-27T18:32:39.999Z</time>
      </trkpt>
      <trkpt lat="45.51445" lon="2.85269">
        <ele>1338.374522</ele>
        <time>2021-08-27T18:32:44.186Z</time>
      </trkpt>
      <trkpt lat="45.5144" lon="2.85236">
        <ele>1336.001755</ele>
        <time>2021-08-27T18:32:50.219Z</time>
      </trkpt>
      <trkpt lat="45.51389" lon="2.85228">
        <ele>1330.982923</ele>
        <time>2021-08-27T18:33:03.228Z</time>
      </trkpt>
      <trkpt lat="45.51366" lon="2.85236">
        <ele>1328.603583</ele>
        <time>2021-08-27T18:33:09.489Z</time>
      </trkpt>
      <trkpt lat="45.51357" lon="2.85231">
        <ele>1327.655033</ele>
        <time>2021-08-27T18:33:12.044Z</time>
      </trkpt>
      <trkpt lat="45.51355" lon="2.8523">
        <ele>1327.527709</ele>
        <time>2021-08-27T18:33:12.339Z</time>
      </trkpt>
      <trkpt lat="45.51331" lon="2.85197">
        <ele>1324.742694</ele>
        <time>2021-08-27T18:33:21.216Z</time>
      </trkpt>
      <trkpt lat="45.51324" lon="2.85197">
        <ele>1324.742694</ele>
        <time>2021-08-27T18:33:22.877Z</time>
      </trkpt>
      <trkpt lat="45.51315" lon="2.85235">
        <ele>1324.742694</ele>
        <time>2021-08-27T18:33:30.622Z</time>
      </trkpt>
      <trkpt lat="45.51306" lon="2.85286">
        <ele>1324.742694</ele>
        <time>2021-08-27T18:33:40.608Z</time>
      </trkpt>
      <trkpt lat="45.51308" lon="2.85322">
        <ele>1324.742694</ele>
        <time>2021-08-27T18:33:47.305Z</time>
      </trkpt>
      <trkpt lat="45.51301" lon="2.85348">
        <ele>1324.742694</ele>
        <time>2021-08-27T18:33:52.637Z</time>
      </trkpt>
      <trkpt lat="45.51282" lon="2.85364">
        <ele>1324.742694</ele>
        <time>2021-08-27T18:33:59.427Z</time>
      </trkpt>
      <trkpt lat="45.51281" lon="2.85368">
        <ele>1324.742694</ele>
        <time>2021-08-27T18:34:00.269Z</time>
      </trkpt>
      <trkpt lat="45.51279" lon="2.85373">
        <ele>1324.742694</ele>
        <time>2021-08-27T18:34:01.064Z</time>
      </trkpt>
    </trkseg>
  </trk>
</gpx>